createdAt,value
2019-03-09T00:00:36.952Z,8.58
2019-03-09T00:03:05.439Z,8.51
2019-03-09T00:05:33.942Z,8.32
2019-03-09T00:08:02.420Z,8.35
2019-03-09T00:10:30.926Z,8.39
2019-03-09T00:12:59.402Z,8.40
2019-03-09T00:15:27.888Z,8.30
2019-03-09T00:17:56.359Z,8.14
2019-03-09T00:20:24.875Z,8.07
2019-03-09T00:23:11.156Z,8.05
2019-03-09T00:25:41.492Z,8.15
2019-03-09T00:28:14.590Z,8.04
2019-03-09T00:30:47.638Z,7.98
2019-03-09T00:33:16.128Z,8.04
2019-03-09T00:35:44.591Z,7.93
2019-03-09T00:38:13.089Z,7.99
2019-03-09T00:40:41.538Z,7.97
2019-03-09T00:43:10.020Z,8.00
2019-03-09T00:45:38.487Z,7.44
2019-03-09T00:48:06.973Z,7.31
2019-03-09T00:50:35.725Z,7.12
2019-03-09T00:53:04.292Z,6.86
2019-03-09T00:55:32.761Z,7.07
2019-03-09T00:58:01.266Z,6.96
2019-03-09T01:00:29.768Z,6.77
2019-03-09T01:02:58.237Z,6.24
2019-03-09T01:05:26.803Z,6.08
2019-03-09T01:07:55.329Z,5.97
2019-03-09T01:10:23.882Z,5.95
2019-03-09T01:12:52.387Z,6.01
2019-03-09T01:15:20.852Z,5.93
2019-03-09T01:17:49.423Z,5.69
2019-03-09T01:20:17.957Z,5.64
2019-03-09T01:22:46.443Z,5.76
2019-03-09T01:25:15.186Z,5.74
2019-03-09T01:27:43.714Z,5.60
2019-03-09T01:30:15.242Z,5.63
2019-03-09T01:32:43.791Z,5.77
2019-03-09T01:35:12.341Z,5.63
2019-03-09T01:37:41.139Z,5.69
2019-03-09T01:40:14.944Z,5.69
2019-03-09T01:42:43.628Z,5.98
2019-03-09T01:45:16.421Z,6.02
2019-03-09T01:47:45.170Z,5.75
2019-03-09T01:50:13.778Z,5.71
2019-03-09T01:52:42.315Z,5.99
2019-03-09T01:55:12.696Z,6.02
2019-03-09T01:57:41.163Z,5.84
2019-03-09T02:00:12.695Z,5.42
2019-03-09T02:02:41.218Z,5.26
2019-03-09T02:05:10.123Z,5.07
2019-03-09T02:07:38.953Z,5.34
2019-03-09T02:10:10.031Z,5.16
2019-03-09T02:12:38.651Z,5.41
2019-03-09T02:15:09.667Z,5.36
2019-03-09T02:17:38.222Z,5.52
2019-03-09T02:20:09.897Z,5.58
2019-03-09T02:22:38.374Z,5.43
2019-03-09T02:25:08.323Z,5.44
2019-03-09T02:27:36.882Z,5.57
2019-03-09T02:30:08.788Z,5.66
2019-03-09T02:32:36.566Z,6.01
2019-03-09T02:35:08.220Z,5.93
2019-03-09T02:37:36.688Z,5.96
2019-03-09T02:40:09.467Z,6.03
2019-03-09T02:42:37.928Z,5.80
2019-03-09T02:45:11.887Z,5.91
2019-03-09T02:47:40.353Z,5.82
2019-03-09T02:50:11.888Z,5.86
2019-03-09T02:52:40.387Z,5.75
2019-03-09T02:55:10.234Z,5.62
2019-03-09T02:57:38.796Z,5.29
2019-03-09T03:00:10.520Z,5.24
2019-03-09T03:02:40.631Z,5.25
2019-03-09T03:05:09.359Z,5.08
2019-03-09T03:07:37.851Z,5.11
2019-03-09T03:10:08.754Z,5.22
2019-03-09T03:12:37.290Z,5.41
2019-03-09T03:15:08.550Z,5.41
2019-03-09T03:17:37.015Z,5.61
2019-03-09T03:20:07.437Z,5.67
2019-03-09T03:22:35.914Z,5.80
2019-03-09T03:25:06.046Z,6.38
2019-03-09T03:27:34.546Z,6.54
2019-03-09T03:30:03.200Z,6.56
2019-03-09T03:32:33.275Z,5.97
2019-03-09T03:35:01.766Z,6.26
2019-03-09T03:37:30.229Z,6.56
2019-03-09T03:39:58.690Z,6.15
2019-03-09T03:42:27.168Z,6.13
2019-03-09T03:44:55.628Z,6.47
2019-03-09T03:47:24.131Z,5.95
2019-03-09T03:49:52.624Z,6.26
2019-03-09T03:52:21.094Z,6.04
2019-03-09T03:54:49.569Z,6.13
2019-03-09T03:57:18.184Z,5.76
2019-03-09T03:59:46.898Z,6.15
2019-03-09T04:02:15.494Z,5.93
2019-03-09T04:04:44.035Z,5.96
2019-03-09T04:07:12.686Z,6.05
2019-03-09T04:09:41.467Z,6.06
2019-03-09T04:12:09.923Z,6.18
2019-03-09T04:14:38.478Z,6.06
2019-03-09T04:17:06.982Z,5.98
2019-03-09T04:19:35.453Z,6.09
2019-03-09T04:22:03.921Z,5.91
2019-03-09T04:24:32.422Z,5.74
2019-03-09T04:27:00.921Z,5.40
2019-03-09T04:29:29.473Z,5.33
2019-03-09T04:31:58.020Z,5.58
2019-03-09T04:34:26.489Z,5.63
2019-03-09T04:37:01.028Z,5.62
2019-03-09T04:39:29.504Z,5.62
2019-03-09T04:41:58.067Z,5.33
2019-03-09T04:44:27.341Z,5.56
2019-03-09T04:46:55.895Z,5.38
2019-03-09T04:49:24.374Z,5.53
2019-03-09T04:51:52.834Z,5.67
2019-03-09T04:54:21.329Z,5.90
2019-03-09T04:56:49.796Z,6.13
2019-03-09T04:59:18.268Z,6.40
2019-03-09T05:01:46.731Z,6.24
2019-03-09T05:04:26.579Z,6.22
2019-03-09T05:06:55.067Z,6.26
2019-03-09T05:09:49.216Z,6.01
2019-03-09T05:12:17.716Z,5.92
2019-03-09T05:14:46.177Z,6.00
2019-03-09T05:17:14.682Z,5.85
2019-03-09T05:19:43.154Z,5.78
2019-03-09T05:22:11.653Z,5.85
2019-03-09T05:24:40.117Z,5.45
2019-03-09T05:27:08.598Z,5.15
2019-03-09T05:29:37.077Z,5.01
2019-03-09T05:32:05.649Z,5.24
2019-03-09T05:34:34.126Z,5.42
2019-03-09T05:37:02.624Z,5.27
2019-03-09T05:39:31.164Z,5.35
2019-03-09T05:41:59.761Z,5.59
2019-03-09T05:44:28.310Z,5.65
2019-03-09T05:46:56.862Z,5.65
2019-03-09T05:49:25.353Z,5.43
2019-03-09T05:52:19.589Z,5.35
2019-03-09T05:54:48.065Z,5.40
2019-03-09T05:57:16.579Z,5.69
2019-03-09T05:59:45.033Z,6.05
2019-03-09T06:02:13.498Z,5.76
2019-03-09T06:04:41.989Z,5.82
2019-03-09T06:07:10.453Z,5.74
2019-03-09T06:09:38.948Z,5.49
2019-03-09T06:12:07.421Z,5.53
2019-03-09T06:14:35.914Z,5.63
2019-03-09T06:17:04.447Z,5.69
2019-03-09T06:19:32.922Z,5.80
2019-03-09T06:22:01.386Z,6.33
2019-03-09T06:24:29.884Z,6.23
2019-03-09T06:26:58.379Z,6.09
2019-03-09T06:29:26.838Z,5.95
2019-03-09T06:32:33.469Z,6.22
2019-03-09T06:35:01.939Z,6.24
2019-03-09T06:37:32.166Z,6.08
2019-03-09T06:40:00.621Z,6.05
2019-03-09T06:42:32.457Z,6.02
2019-03-09T06:45:00.350Z,5.73
2019-03-09T06:47:28.864Z,5.89
2019-03-09T06:49:57.377Z,5.81
2019-03-09T06:52:26.438Z,5.82
2019-03-09T06:54:54.901Z,6.09
2019-03-09T06:57:23.503Z,5.88
2019-03-09T06:59:51.994Z,6.46
2019-03-09T07:02:20.455Z,6.24
2019-03-09T07:04:49.035Z,6.17
2019-03-09T07:07:17.498Z,6.11
2019-03-09T07:09:45.960Z,6.08
2019-03-09T07:12:14.462Z,6.23
2019-03-09T07:15:00.868Z,6.20
2019-03-09T07:17:29.359Z,5.71
2019-03-09T07:19:57.845Z,5.42
2019-03-09T07:22:26.312Z,5.80
2019-03-09T07:24:54.808Z,5.97
2019-03-09T07:27:23.270Z,5.84
2019-03-09T07:29:51.843Z,6.22
2019-03-09T07:32:20.303Z,6.61
2019-03-09T07:34:49.059Z,6.52
2019-03-09T07:37:17.524Z,6.67
2019-03-09T07:39:45.999Z,6.72
2019-03-09T07:42:14.499Z,6.88
2019-03-09T07:44:42.960Z,7.20
2019-03-09T07:47:11.433Z,7.51
2019-03-09T07:49:39.900Z,7.79
2019-03-09T07:52:35.245Z,7.30
2019-03-09T07:55:04.553Z,6.94
2019-03-09T07:57:33.044Z,7.36
2019-03-09T08:00:01.543Z,7.57
2019-03-09T08:02:30.008Z,7.68
2019-03-09T08:04:58.480Z,7.51
2019-03-09T08:07:26.960Z,7.33
2019-03-09T08:09:55.466Z,7.30
2019-03-09T08:12:24.276Z,7.61
2019-03-09T08:14:52.803Z,7.39
2019-03-09T08:17:21.307Z,7.75
2019-03-09T08:19:49.790Z,7.64
2019-03-09T08:22:18.386Z,7.96
2019-03-09T08:24:46.863Z,7.79
2019-03-09T08:27:15.330Z,7.90
2019-03-09T08:29:44.861Z,8.13
2019-03-09T08:32:13.359Z,8.02
2019-03-09T08:34:41.817Z,8.02
2019-03-09T08:37:10.290Z,8.17
2019-03-09T08:39:38.808Z,8.60
2019-03-09T08:42:07.563Z,8.45
2019-03-09T08:44:36.039Z,8.69
2019-03-09T08:47:05.835Z,8.76
2019-03-09T08:49:34.441Z,8.85
2019-03-09T08:52:02.914Z,8.78
2019-03-09T08:54:31.406Z,8.70
2019-03-09T08:56:59.915Z,8.71
2019-03-09T08:59:28.406Z,9.27
2019-03-09T09:01:56.868Z,9.06
2019-03-09T09:04:25.336Z,8.34
2019-03-09T09:06:53.815Z,8.50
2019-03-09T09:09:22.326Z,8.77
2019-03-09T09:11:50.791Z,8.97
2019-03-09T09:14:19.297Z,8.63
2019-03-09T09:16:47.805Z,8.39
2019-03-09T09:19:16.267Z,8.59
2019-03-09T09:21:44.772Z,8.83
2019-03-09T09:24:13.244Z,8.75
2019-03-09T09:26:41.759Z,8.83
2019-03-09T09:29:10.245Z,9.02
2019-03-09T09:31:38.726Z,9.03
2019-03-09T09:34:07.271Z,9.27
2019-03-09T09:36:36.023Z,9.62
2019-03-09T09:39:06.389Z,9.38
2019-03-09T09:41:34.853Z,9.54
2019-03-09T09:44:03.975Z,9.40
2019-03-09T09:46:32.621Z,9.39
2019-03-09T09:49:01.087Z,9.37
2019-03-09T09:51:29.584Z,9.62
2019-03-09T09:53:58.048Z,9.23
2019-03-09T09:56:26.525Z,8.86
2019-03-09T09:58:54.989Z,9.18
2019-03-09T10:01:23.487Z,9.33
2019-03-09T10:03:51.948Z,9.13
2019-03-09T10:06:20.413Z,9.12
2019-03-09T10:08:48.915Z,8.78
2019-03-09T10:11:17.401Z,9.08
2019-03-09T10:13:45.875Z,8.98
2019-03-09T10:16:15.542Z,8.72
2019-03-09T10:18:43.955Z,8.92
2019-03-09T10:21:12.463Z,9.11
2019-03-09T10:23:40.930Z,8.68
2019-03-09T10:26:09.395Z,8.96
2019-03-09T10:28:37.910Z,8.91
2019-03-09T10:31:06.405Z,8.90
2019-03-09T10:33:34.839Z,9.00
2019-03-09T10:36:03.324Z,8.83
2019-03-09T10:38:31.788Z,8.78
2019-03-09T10:41:00.300Z,8.80
2019-03-09T10:43:28.766Z,8.69
2019-03-09T10:45:57.339Z,8.77
2019-03-09T10:48:25.864Z,8.76
2019-03-09T10:50:54.345Z,8.74
2019-03-09T10:53:22.817Z,8.93
2019-03-09T10:55:51.287Z,8.82
2019-03-09T10:58:19.775Z,8.87
2019-03-09T11:00:48.387Z,8.75
2019-03-09T11:03:16.952Z,8.88
2019-03-09T11:05:45.486Z,8.47
2019-03-09T11:08:14.115Z,8.34
2019-03-09T11:10:42.610Z,8.17
2019-03-09T11:13:11.078Z,8.23
2019-03-09T11:15:39.572Z,8.13
2019-03-09T11:18:08.035Z,8.30
2019-03-09T11:20:36.533Z,8.22
2019-03-09T11:23:08.267Z,8.31
2019-03-09T11:25:36.811Z,8.02
2019-03-09T11:28:09.945Z,8.25
2019-03-09T11:30:38.558Z,8.22
2019-03-09T11:33:07.061Z,8.01
2019-03-09T11:35:35.723Z,7.95
2019-03-09T11:38:05.971Z,7.82
2019-03-09T11:40:34.552Z,8.22
2019-03-09T11:43:03.959Z,8.22
2019-03-09T11:45:32.424Z,8.03
2019-03-09T11:48:00.961Z,8.06
2019-03-09T11:50:29.428Z,8.03
2019-03-09T11:52:57.893Z,8.14
2019-03-09T11:55:27.789Z,8.08
2019-03-09T11:57:56.330Z,8.05
2019-03-09T12:00:32.418Z,8.22
2019-03-09T12:03:00.955Z,8.20
2019-03-09T12:05:29.265Z,8.29
2019-03-09T12:07:57.730Z,8.19
2019-03-09T12:10:26.264Z,8.79
2019-03-09T12:12:55.110Z,9.41
2019-03-09T12:15:25.609Z,9.85
2019-03-09T12:17:54.115Z,9.94
2019-03-09T12:20:24.295Z,9.44
2019-03-09T12:23:01.243Z,9.96
2019-03-09T12:25:23.050Z,10.37
2019-03-09T12:27:51.551Z,9.96
2019-03-09T12:30:20.774Z,9.31
2019-03-09T12:32:49.443Z,9.05
2019-03-09T12:35:18.013Z,8.85
2019-03-09T12:37:46.880Z,8.84
2019-03-09T12:40:20.114Z,8.53
2019-03-09T12:42:49.046Z,8.52
2019-03-09T12:45:18.022Z,8.45
2019-03-09T12:47:48.024Z,8.56
2019-03-09T12:50:24.337Z,8.78
2019-03-09T12:52:52.808Z,8.91
2019-03-09T12:55:21.348Z,8.72
2019-03-09T12:57:49.837Z,9.04
2019-03-09T13:00:23.964Z,9.10
2019-03-09T13:02:52.466Z,9.05
2019-03-09T13:05:20.963Z,8.79
2019-03-09T13:07:49.436Z,8.96
2019-03-09T13:10:19.605Z,8.97
2019-03-09T13:12:48.139Z,9.20
2019-03-09T13:15:17.270Z,9.16
2019-03-09T13:17:46.087Z,9.14
2019-03-09T13:20:16.110Z,9.23
2019-03-09T13:22:44.766Z,9.34
2019-03-09T13:25:14.012Z,9.40
2019-03-09T13:27:42.512Z,9.47
2019-03-09T13:30:19.517Z,9.26
2019-03-09T13:32:48.108Z,9.36
2019-03-09T13:35:16.570Z,9.49
2019-03-09T13:37:45.273Z,9.51
2019-03-09T13:40:17.291Z,9.72
2019-03-09T13:42:45.749Z,9.55
2019-03-09T13:45:18.908Z,9.55
2019-03-09T13:47:47.378Z,9.83
2019-03-09T13:50:15.917Z,9.74
2019-03-09T13:52:45.042Z,9.89
2019-03-09T13:55:14.367Z,9.70
2019-03-09T13:57:42.923Z,9.94
2019-03-09T14:00:16.518Z,10.15
2019-03-09T14:02:45.164Z,10.12
2019-03-09T14:05:13.890Z,9.94
2019-03-09T14:07:42.467Z,10.06
2019-03-09T14:10:15.520Z,9.82
2019-03-09T14:12:44.244Z,10.06
2019-03-09T14:15:17.040Z,10.32
2019-03-09T14:17:46.726Z,10.01
2019-03-09T14:20:16.383Z,10.35
2019-03-09T14:22:45.019Z,10.12
2019-03-09T14:25:17.019Z,10.13
2019-03-09T14:27:44.866Z,10.47
2019-03-09T14:30:18.473Z,10.29
2019-03-09T14:32:47.343Z,10.52
2019-03-09T14:35:16.002Z,10.85
2019-03-09T14:37:44.605Z,10.93
2019-03-09T14:40:15.390Z,10.65
2019-03-09T14:42:44.364Z,10.83
2019-03-09T14:45:21.536Z,10.57
2019-03-09T14:47:50.015Z,10.42
2019-03-09T14:50:18.555Z,10.67
2019-03-09T14:52:47.041Z,10.98
2019-03-09T14:55:15.691Z,10.78
2019-03-09T14:57:46.039Z,10.39
2019-03-09T15:00:25.942Z,10.79
2019-03-09T15:02:54.534Z,10.57
2019-03-09T15:05:23.251Z,10.52
2019-03-09T15:07:53.117Z,10.70
2019-03-09T15:10:21.698Z,10.87
2019-03-09T15:12:50.297Z,10.79
2019-03-09T15:15:20.110Z,10.50
2019-03-09T15:17:48.590Z,10.47
2019-03-09T15:20:17.625Z,10.60
2019-03-09T15:22:46.204Z,10.57
2019-03-09T15:25:20.153Z,10.58
2019-03-09T15:27:48.879Z,10.89
2019-03-09T15:30:18.449Z,10.77
2019-03-09T15:32:46.936Z,10.86
2019-03-09T15:35:18.575Z,10.72
2019-03-09T15:37:47.315Z,10.51
2019-03-09T15:40:17.770Z,10.43
2019-03-09T15:42:46.246Z,10.37
2019-03-09T15:45:19.535Z,10.44
2019-03-09T15:47:48.284Z,10.48
2019-03-09T15:50:23.987Z,10.47
2019-03-09T15:52:53.517Z,10.72
2019-03-09T15:55:21.981Z,10.55
2019-03-09T15:57:50.464Z,10.64
2019-03-09T16:00:25.183Z,10.54
2019-03-09T16:02:53.936Z,10.65
2019-03-09T16:05:22.489Z,10.73
2019-03-09T16:07:50.982Z,10.97
2019-03-09T16:10:22.838Z,11.03
2019-03-09T16:12:51.310Z,10.93
2019-03-09T16:15:20.071Z,10.99
2019-03-09T16:17:48.637Z,11.16
2019-03-09T16:20:19.788Z,10.91
2019-03-09T16:22:48.259Z,10.98
2019-03-09T16:25:16.830Z,11.23
2019-03-09T16:27:45.324Z,11.09
2019-03-09T16:30:22.034Z,11.16
2019-03-09T16:32:50.761Z,11.19
2019-03-09T16:35:19.352Z,10.74
2019-03-09T16:37:49.180Z,10.52
2019-03-09T16:40:19.976Z,10.28
2019-03-09T16:42:48.483Z,10.41
2019-03-09T16:45:17.325Z,10.70
2019-03-09T16:47:45.855Z,10.43
2019-03-09T16:50:18.279Z,10.42
2019-03-09T16:52:47.398Z,10.40
2019-03-09T16:55:16.232Z,10.65
2019-03-09T16:57:46.061Z,10.53
2019-03-09T17:00:19.507Z,10.51
2019-03-09T17:02:48.286Z,10.29
2019-03-09T17:05:17.089Z,10.15
2019-03-09T17:07:45.636Z,10.07
2019-03-09T17:10:19.351Z,9.83
2019-03-09T17:12:48.041Z,9.94
2019-03-09T17:15:21.289Z,10.01
2019-03-09T17:17:49.840Z,10.05
2019-03-09T17:20:18.794Z,10.10
2019-03-09T17:22:47.288Z,10.11
2019-03-09T17:25:16.105Z,10.17
2019-03-09T17:27:45.384Z,9.93
2019-03-09T17:30:20.817Z,9.85
2019-03-09T17:32:53.447Z,9.83
2019-03-09T17:35:22.178Z,9.91
2019-03-09T17:40:47.807Z,9.78
2019-03-09T17:43:18.036Z,9.82
2019-03-09T17:45:46.504Z,9.66
2019-03-09T17:48:15.046Z,9.67
2019-03-09T17:50:44.932Z,9.59
2019-03-09T17:53:14.138Z,9.47
2019-03-09T17:55:42.664Z,9.51
2019-03-09T17:58:11.132Z,9.47
2019-03-09T18:00:44.242Z,9.28
2019-03-09T18:03:12.713Z,9.27
2019-03-09T18:05:41.204Z,8.97
2019-03-09T18:08:09.671Z,9.04
2019-03-09T18:10:44.032Z,9.12
2019-03-09T18:13:12.498Z,8.83
2019-03-09T18:15:40.974Z,8.90
2019-03-09T18:18:09.445Z,8.99
2019-03-09T18:20:37.946Z,8.89
2019-03-09T18:23:06.482Z,9.03
2019-03-09T18:25:35.047Z,8.88
2019-03-09T18:28:05.952Z,9.05
2019-03-09T18:30:34.421Z,9.09
2019-03-09T18:33:02.895Z,8.72
2019-03-09T18:35:31.382Z,8.99
2019-03-09T18:37:59.880Z,8.94
2019-03-09T18:40:28.395Z,8.94
2019-03-09T18:42:56.863Z,8.87
2019-03-09T18:45:25.801Z,8.97
2019-03-09T18:47:54.400Z,8.81
2019-03-09T18:50:22.892Z,8.80
2019-03-09T18:52:51.355Z,8.89
2019-03-09T18:55:19.853Z,8.94
2019-03-09T18:57:48.315Z,9.25
2019-03-09T19:00:23.131Z,9.30
2019-03-09T19:02:51.666Z,9.18
2019-03-09T19:05:20.333Z,9.25
2019-03-09T19:07:48.800Z,9.18
2019-03-09T19:10:22.752Z,9.02
2019-03-09T19:12:51.217Z,9.27
2019-03-09T19:15:20.050Z,8.97
2019-03-09T19:17:48.528Z,9.10
2019-03-09T19:20:18.431Z,9.04
2019-03-09T19:22:46.909Z,9.09
2019-03-09T19:25:16.319Z,9.15
2019-03-09T19:27:44.794Z,9.16
2019-03-09T19:30:20.514Z,9.06
2019-03-09T19:32:59.605Z,9.27
2019-03-09T19:35:19.251Z,9.19
2019-03-09T19:37:47.717Z,9.63
2019-03-09T19:40:20.500Z,9.40
2019-03-09T19:42:48.963Z,9.46
2019-03-09T19:45:21.304Z,9.19
2019-03-09T19:47:49.843Z,9.36
2019-03-09T19:50:21.372Z,9.27
2019-03-09T19:52:51.550Z,9.45
2019-03-09T19:55:20.020Z,9.93
2019-03-09T19:57:48.560Z,9.58
2019-03-09T20:00:18.579Z,9.76
2019-03-09T20:02:47.065Z,9.74
2019-03-09T20:05:15.918Z,9.66
2019-03-09T20:07:44.396Z,9.94
2019-03-09T20:10:18.085Z,9.79
2019-03-09T20:12:46.617Z,9.77
2019-03-09T20:15:19.239Z,9.92
2019-03-09T20:17:47.732Z,9.88
2019-03-09T20:20:17.035Z,9.14
2019-03-09T20:22:46.388Z,9.01
2019-03-09T20:25:15.024Z,8.99
2019-03-09T20:27:43.533Z,9.02
2019-03-09T20:30:20.956Z,8.98
2019-03-09T20:32:49.504Z,9.00
2019-03-09T20:35:18.165Z,8.62
2019-03-09T20:37:46.739Z,9.09
2019-03-09T20:40:18.600Z,9.18
2019-03-09T20:42:46.383Z,9.53
2019-03-09T20:45:16.336Z,8.48
2019-03-09T20:47:45.786Z,8.48
2019-03-09T20:50:18.725Z,8.76
2019-03-09T20:52:47.375Z,8.71
2019-03-09T20:55:15.939Z,8.52
2019-03-09T20:57:44.474Z,8.76
2019-03-09T21:00:17.564Z,8.71
2019-03-09T21:02:46.028Z,8.36
2019-03-09T21:05:14.609Z,7.97
2019-03-09T21:07:43.132Z,7.34
2019-03-09T21:10:14.662Z,7.33
2019-03-09T21:13:10.273Z,6.98
2019-03-09T21:15:38.763Z,7.21
2019-03-09T21:18:07.256Z,7.40
2019-03-09T21:20:35.730Z,7.42
2019-03-09T21:23:04.296Z,7.12
2019-03-09T21:25:32.762Z,7.47
2019-03-09T21:28:01.406Z,7.34
2019-03-09T21:30:29.949Z,7.37
2019-03-09T21:32:58.441Z,7.78
2019-03-09T21:35:26.967Z,7.87
2019-03-09T21:37:55.474Z,7.43
2019-03-09T21:40:23.970Z,7.43
2019-03-09T21:42:52.497Z,7.16
2019-03-09T21:45:21.235Z,7.24
2019-03-09T21:47:49.707Z,7.05
2019-03-09T21:50:18.691Z,7.10
2019-03-09T21:52:47.155Z,7.00
2019-03-09T21:55:16.848Z,7.37
2019-03-09T21:57:46.994Z,7.12
2019-03-09T22:00:20.560Z,7.42
2019-03-09T22:02:50.288Z,7.36
2019-03-09T22:05:19.172Z,7.14
2019-03-09T22:07:47.738Z,7.33
2019-03-09T22:10:16.276Z,6.88
2019-03-09T22:12:44.797Z,6.89
2019-03-09T22:15:17.668Z,6.83
2019-03-09T22:17:46.160Z,6.74
2019-03-09T22:20:15.167Z,6.90
2019-03-09T22:22:44.080Z,6.99
2019-03-09T22:25:13.991Z,6.95
2019-03-09T22:27:42.638Z,7.19
2019-03-09T22:30:16.403Z,6.99
2019-03-09T22:32:44.886Z,7.03
2019-03-09T22:35:14.201Z,7.25
2019-03-09T22:37:42.697Z,7.33
2019-03-09T22:40:18.339Z,7.27
2019-03-09T22:42:46.887Z,7.37
2019-03-09T22:45:16.094Z,7.36
2019-03-09T22:47:44.895Z,7.42
2019-03-09T22:50:21.758Z,7.17
2019-03-09T22:52:50.252Z,7.22
2019-03-09T22:55:18.739Z,7.34
2019-03-09T22:57:47.209Z,7.43
2019-03-09T23:00:24.555Z,7.60
2019-03-09T23:02:53.290Z,7.60
2019-03-09T23:05:21.855Z,7.57
2019-03-09T23:07:50.319Z,7.71
2019-03-09T23:10:28.416Z,7.95
2019-03-09T23:12:56.998Z,8.11
2019-03-09T23:15:25.543Z,7.88
2019-03-09T23:17:54.041Z,7.92
2019-03-09T23:20:22.645Z,7.82
2019-03-09T23:22:51.117Z,7.72
2019-03-09T23:25:19.598Z,7.56
2019-03-09T23:27:48.172Z,7.65
2019-03-09T23:30:21.850Z,7.66
2019-03-09T23:32:50.638Z,7.71
2019-03-09T23:35:19.117Z,7.74
2019-03-09T23:37:47.995Z,7.70
2019-03-09T23:40:18.501Z,7.89
2019-03-09T23:42:46.991Z,7.90
2019-03-09T23:45:20.685Z,7.88
2019-03-09T23:47:49.356Z,7.96
2019-03-09T23:50:18.671Z,8.09
2019-03-09T23:52:47.384Z,7.61
2019-03-09T23:55:22.102Z,7.30
2019-03-09T23:57:47.968Z,7.07
